sensor_id;sensor_type;location;lat;lon;timestamp;P1;durP1;ratioP1;P2;durP2;ratioP2
63943;SDS011;50121;51.218;7.664;2023-03-03T00:01:35;51.15;;;19.75;;
63943;SDS011;50121;51.218;7.664;2023-03-03T00:04:03;48.67;;;19.60;;
63943;SDS011;50121;51.218;7.664;2023-03-03T00:06:31;50.00;;;21.92;;
63943;SDS011;50121;51.218;7.664;2023-03-03T00:08:58;33.60;;;14.63;;
63943;SDS011;50121;51.218;7.664;2023-03-03T00:11:26;70.00;;;19.77;;
63943;SDS011;50121;51.218;7.664;2023-03-03T00:13:54;43.33;;;20.75;;
63943;SDS011;50121;51.218;7.664;2023-03-03T00:18:50;44.80;;;21.33;;
63943;SDS011;50121;51.218;7.664;2023-03-03T00:21:31;42.03;;;21.17;;
63943;SDS011;50121;51.218;7.664;2023-03-03T00:26:50;47.85;;;21.92;;
63943;SDS011;50121;51.218;7.664;2023-03-03T00:34:38;54.58;;;19.65;;
63943;SDS011;50121;51.218;7.664;2023-03-03T00:40:08;44.35;;;21.33;;
63943;SDS011;50121;51.218;7.664;2023-03-03T00:42:39;53.63;;;17.25;;
63943;SDS011;50121;51.218;7.664;2023-03-03T00:45:16;128.00;;;20.02;;
63943;SDS011;50121;51.218;7.664;2023-03-03T00:47:46;75.25;;;16.92;;
63943;SDS011;50121;51.218;7.664;2023-03-03T00:52:53;80.38;;;18.13;;
63943;SDS011;50121;51.218;7.664;2023-03-03T00:55:22;45.35;;;20.23;;
63943;SDS011;50121;51.218;7.664;2023-03-03T00:57:50;93.60;;;19.88;;
63943;SDS011;50121;51.218;7.664;2023-03-03T01:00:23;60.30;;;20.38;;
63943;SDS011;50121;51.218;7.664;2023-03-03T01:02:51;62.78;;;20.00;;
63943;SDS011;50121;51.218;7.664;2023-03-03T01:05:19;86.93;;;20.60;;
63943;SDS011;50121;51.218;7.664;2023-03-03T01:07:47;67.72;;;19.55;;
63943;SDS011;50121;51.218;7.664;2023-03-03T01:10:15;72.78;;;20.02;;
63943;SDS011;50121;51.218;7.664;2023-03-03T01:12:43;60.05;;;20.10;;
63943;SDS011;50121;51.218;7.664;2023-03-03T01:15:12;98.30;;;17.42;;
63943;SDS011;50121;51.218;7.664;2023-03-03T01:17:40;63.78;;;13.60;;
63943;SDS011;50121;51.218;7.664;2023-03-03T01:20:10;101.75;;;18.38;;
63943;SDS011;50121;51.218;7.664;2023-03-03T01:22:38;94.15;;;17.33;;
63943;SDS011;50121;51.218;7.664;2023-03-03T01:25:06;95.78;;;17.83;;
63943;SDS011;50121;51.218;7.664;2023-03-03T01:27:34;78.75;;;18.52;;
63943;SDS011;50121;51.218;7.664;2023-03-03T01:30:03;69.03;;;16.35;;
63943;SDS011;50121;51.218;7.664;2023-03-03T01:32:31;93.75;;;17.10;;
63943;SDS011;50121;51.218;7.664;2023-03-03T01:34:58;82.68;;;17.83;;
63943;SDS011;50121;51.218;7.664;2023-03-03T01:37:26;72.75;;;18.00;;
63943;SDS011;50121;51.218;7.664;2023-03-03T01:39:54;48.33;;;18.58;;
63943;SDS011;50121;51.218;7.664;2023-03-03T01:42:22;45.78;;;19.15;;
63943;SDS011;50121;51.218;7.664;2023-03-03T01:45:07;88.75;;;16.27;;
63943;SDS011;50121;51.218;7.664;2023-03-03T01:47:36;73.07;;;13.32;;
63943;SDS011;50121;51.218;7.664;2023-03-03T01:50:05;88.10;;;16.40;;
63943;SDS011;50121;51.218;7.664;2023-03-03T01:52:37;48.75;;;16.60;;
63943;SDS011;50121;51.218;7.664;2023-03-03T01:55:17;106.95;;;18.75;;
63943;SDS011;50121;51.218;7.664;2023-03-03T01:57:47;78.90;;;15.15;;
63943;SDS011;50121;51.218;7.664;2023-03-03T02:00:16;38.15;;;16.30;;
63943;SDS011;50121;51.218;7.664;2023-03-03T02:02:44;36.47;;;17.50;;
63943;SDS011;50121;51.218;7.664;2023-03-03T02:05:12;47.60;;;17.95;;
63943;SDS011;50121;51.218;7.664;2023-03-03T02:07:42;54.13;;;17.58;;
63943;SDS011;50121;51.218;7.664;2023-03-03T02:10:11;55.85;;;17.90;;
63943;SDS011;50121;51.218;7.664;2023-03-03T02:12:44;46.13;;;17.45;;
63943;SDS011;50121;51.218;7.664;2023-03-03T02:15:20;46.00;;;16.77;;
63943;SDS011;50121;51.218;7.664;2023-03-03T02:17:49;38.05;;;12.38;;
63943;SDS011;50121;51.218;7.664;2023-03-03T02:23:06;43.47;;;15.43;;
63943;SDS011;50121;51.218;7.664;2023-03-03T02:28:12;34.15;;;15.63;;
63943;SDS011;50121;51.218;7.664;2023-03-03T02:30:40;61.00;;;12.55;;
63943;SDS011;50121;51.218;7.664;2023-03-03T02:33:08;53.85;;;17.35;;
63943;SDS011;50121;51.218;7.664;2023-03-03T02:35:37;65.85;;;14.52;;
63943;SDS011;50121;51.218;7.664;2023-03-03T02:41:02;44.83;;;17.05;;
63943;SDS011;50121;51.218;7.664;2023-03-03T02:43:33;32.70;;;15.85;;
63943;SDS011;50121;51.218;7.664;2023-03-03T02:46:03;58.72;;;15.85;;
63943;SDS011;50121;51.218;7.664;2023-03-03T02:48:31;48.53;;;15.50;;
63943;SDS011;50121;51.218;7.664;2023-03-03T02:50:58;72.90;;;15.38;;
63943;SDS011;50121;51.218;7.664;2023-03-03T02:53:26;65.70;;;16.55;;
63943;SDS011;50121;51.218;7.664;2023-03-03T02:55:54;34.58;;;16.83;;
63943;SDS011;50121;51.218;7.664;2023-03-03T02:58:21;44.03;;;16.88;;
63943;SDS011;50121;51.218;7.664;2023-03-03T03:00:49;51.38;;;16.63;;
63943;SDS011;50121;51.218;7.664;2023-03-03T03:03:20;54.10;;;16.48;;
63943;SDS011;50121;51.218;7.664;2023-03-03T03:05:49;59.75;;;16.85;;
63943;SDS011;50121;51.218;7.664;2023-03-03T03:08:18;64.78;;;16.25;;
63943;SDS011;50121;51.218;7.664;2023-03-03T03:10:46;36.15;;;16.70;;
63943;SDS011;50121;51.218;7.664;2023-03-03T03:13:14;53.90;;;14.95;;
63943;SDS011;50121;51.218;7.664;2023-03-03T03:15:46;72.20;;;16.35;;
63943;SDS011;50121;51.218;7.664;2023-03-03T03:18:14;67.93;;;15.77;;
63943;SDS011;50121;51.218;7.664;2023-03-03T03:20:43;34.92;;;16.55;;
63943;SDS011;50121;51.218;7.664;2023-03-03T03:23:13;54.90;;;16.42;;
63943;SDS011;50121;51.218;7.664;2023-03-03T03:25:41;32.42;;;14.82;;
63943;SDS011;50121;51.218;7.664;2023-03-03T03:28:18;47.05;;;16.23;;
63943;SDS011;50121;51.218;7.664;2023-03-03T03:30:45;34.85;;;16.30;;
63943;SDS011;50121;51.218;7.664;2023-03-03T03:33:13;41.88;;;15.90;;
63943;SDS011;50121;51.218;7.664;2023-03-03T03:35:41;54.03;;;15.80;;
63943;SDS011;50121;51.218;7.664;2023-03-03T03:38:13;64.28;;;15.90;;
63943;SDS011;50121;51.218;7.664;2023-03-03T03:40:41;44.10;;;16.80;;
63943;SDS011;50121;51.218;7.664;2023-03-03T03:43:09;82.32;;;16.90;;
63943;SDS011;50121;51.218;7.664;2023-03-03T03:45:37;69.22;;;15.50;;
63943;SDS011;50121;51.218;7.664;2023-03-03T03:48:05;63.17;;;17.52;;
63943;SDS011;50121;51.218;7.664;2023-03-03T03:50:33;46.35;;;16.65;;
63943;SDS011;50121;51.218;7.664;2023-03-03T03:53:01;49.85;;;17.58;;
63943;SDS011;50121;51.218;7.664;2023-03-03T03:55:29;32.72;;;15.85;;
63943;SDS011;50121;51.218;7.664;2023-03-03T03:57:57;33.90;;;15.88;;
63943;SDS011;50121;51.218;7.664;2023-03-03T04:00:26;60.58;;;13.05;;
63943;SDS011;50121;51.218;7.664;2023-03-03T04:02:57;52.30;;;15.82;;
63943;SDS011;50121;51.218;7.664;2023-03-03T04:05:25;37.72;;;16.08;;
63943;SDS011;50121;51.218;7.664;2023-03-03T04:07:53;39.70;;;15.15;;
63943;SDS011;50121;51.218;7.664;2023-03-03T04:10:21;61.80;;;15.95;;
63943;SDS011;50121;51.218;7.664;2023-03-03T04:12:49;32.25;;;15.85;;
63943;SDS011;50121;51.218;7.664;2023-03-03T04:15:16;39.15;;;16.33;;
63943;SDS011;50121;51.218;7.664;2023-03-03T04:17:44;51.65;;;15.40;;
63943;SDS011;50121;51.218;7.664;2023-03-03T04:20:13;29.83;;;15.18;;
63943;SDS011;50121;51.218;7.664;2023-03-03T04:22:43;44.13;;;14.68;;
63943;SDS011;50121;51.218;7.664;2023-03-03T04:25:14;33.63;;;15.18;;
63943;SDS011;50121;51.218;7.664;2023-03-03T04:27:44;53.17;;;15.63;;
63943;SDS011;50121;51.218;7.664;2023-03-03T04:30:14;30.73;;;14.38;;
63943;SDS011;50121;51.218;7.664;2023-03-03T04:32:45;61.38;;;14.65;;
63943;SDS011;50121;51.218;7.664;2023-03-03T04:35:15;27.75;;;14.15;;
63943;SDS011;50121;51.218;7.664;2023-03-03T04:37:43;31.45;;;13.70;;
63943;SDS011;50121;51.218;7.664;2023-03-03T04:40:12;27.75;;;13.65;;
63943;SDS011;50121;51.218;7.664;2023-03-03T04:42:41;40.63;;;13.07;;
63943;SDS011;50121;51.218;7.664;2023-03-03T04:45:09;26.20;;;13.73;;
63943;SDS011;50121;51.218;7.664;2023-03-03T04:47:37;43.85;;;13.05;;
63943;SDS011;50121;51.218;7.664;2023-03-03T04:50:06;31.50;;;14.27;;
63943;SDS011;50121;51.218;7.664;2023-03-03T04:52:35;48.65;;;12.73;;
63943;SDS011;50121;51.218;7.664;2023-03-03T04:55:03;28.60;;;13.98;;
63943;SDS011;50121;51.218;7.664;2023-03-03T04:57:31;32.20;;;13.38;;
63943;SDS011;50121;51.218;7.664;2023-03-03T04:59:59;30.67;;;13.32;;
63943;SDS011;50121;51.218;7.664;2023-03-03T05:02:27;27.92;;;13.68;;
63943;SDS011;50121;51.218;7.664;2023-03-03T05:04:55;42.72;;;12.48;;
63943;SDS011;50121;51.218;7.664;2023-03-03T05:07:23;41.15;;;12.68;;
63943;SDS011;50121;51.218;7.664;2023-03-03T05:09:50;35.85;;;12.23;;
63943;SDS011;50121;51.218;7.664;2023-03-03T05:12:18;24.45;;;12.38;;
63943;SDS011;50121;51.218;7.664;2023-03-03T05:14:46;29.02;;;11.80;;
63943;SDS011;50121;51.218;7.664;2023-03-03T05:17:14;26.52;;;13.10;;
63943;SDS011;50121;51.218;7.664;2023-03-03T05:19:41;29.60;;;13.40;;
63943;SDS011;50121;51.218;7.664;2023-03-03T05:22:09;25.77;;;13.00;;
63943;SDS011;50121;51.218;7.664;2023-03-03T05:24:37;36.00;;;13.63;;
63943;SDS011;50121;51.218;7.664;2023-03-03T05:27:04;30.67;;;13.73;;
63943;SDS011;50121;51.218;7.664;2023-03-03T05:29:32;32.70;;;7.43;;
63943;SDS011;50121;51.218;7.664;2023-03-03T05:32:00;32.05;;;12.95;;
63943;SDS011;50121;51.218;7.664;2023-03-03T05:34:27;36.53;;;13.02;;
63943;SDS011;50121;51.218;7.664;2023-03-03T05:36:55;46.83;;;12.63;;
63943;SDS011;50121;51.218;7.664;2023-03-03T05:39:22;42.63;;;13.45;;
63943;SDS011;50121;51.218;7.664;2023-03-03T05:41:50;31.67;;;12.20;;
63943;SDS011;50121;51.218;7.664;2023-03-03T05:44:18;37.22;;;11.50;;
63943;SDS011;50121;51.218;7.664;2023-03-03T05:46:46;25.17;;;12.50;;
63943;SDS011;50121;51.218;7.664;2023-03-03T05:49:13;31.77;;;12.13;;
63943;SDS011;50121;51.218;7.664;2023-03-03T05:51:41;38.00;;;12.00;;
63943;SDS011;50121;51.218;7.664;2023-03-03T05:54:09;43.05;;;12.43;;
63943;SDS011;50121;51.218;7.664;2023-03-03T05:56:36;28.67;;;12.65;;
63943;SDS011;50121;51.218;7.664;2023-03-03T05:59:04;32.45;;;12.70;;
63943;SDS011;50121;51.218;7.664;2023-03-03T06:01:31;28.00;;;11.90;;
63943;SDS011;50121;51.218;7.664;2023-03-03T06:03:59;29.92;;;10.35;;
63943;SDS011;50121;51.218;7.664;2023-03-03T06:06:26;31.33;;;11.88;;
63943;SDS011;50121;51.218;7.664;2023-03-03T06:08:54;30.27;;;8.32;;
63943;SDS011;50121;51.218;7.664;2023-03-03T06:11:22;25.70;;;11.73;;
63943;SDS011;50121;51.218;7.664;2023-03-03T06:13:50;9.38;;;6.25;;
63943;SDS011;50121;51.218;7.664;2023-03-03T06:16:18;84.60;;;11.40;;
63943;SDS011;50121;51.218;7.664;2023-03-03T06:18:46;77.55;;;11.07;;
63943;SDS011;50121;51.218;7.664;2023-03-03T06:21:13;30.88;;;12.00;;
63943;SDS011;50121;51.218;7.664;2023-03-03T06:23:41;39.85;;;11.82;;
63943;SDS011;50121;51.218;7.664;2023-03-03T06:26:09;43.05;;;12.73;;
63943;SDS011;50121;51.218;7.664;2023-03-03T06:28:36;43.42;;;12.73;;
63943;SDS011;50121;51.218;7.664;2023-03-03T06:31:04;26.35;;;12.85;;
63943;SDS011;50121;51.218;7.664;2023-03-03T06:33:31;12.55;;;7.68;;
63943;SDS011;50121;51.218;7.664;2023-03-03T06:35:59;30.98;;;11.68;;
63943;SDS011;50121;51.218;7.664;2023-03-03T06:38:26;32.40;;;11.60;;
63943;SDS011;50121;51.218;7.664;2023-03-03T06:40:54;45.30;;;13.00;;
63943;SDS011;50121;51.218;7.664;2023-03-03T06:43:22;45.75;;;12.63;;
63943;SDS011;50121;51.218;7.664;2023-03-03T06:45:49;28.13;;;11.52;;
63943;SDS011;50121;51.218;7.664;2023-03-03T06:48:17;32.95;;;9.13;;
63943;SDS011;50121;51.218;7.664;2023-03-03T06:50:44;32.22;;;12.55;;
63943;SDS011;50121;51.218;7.664;2023-03-03T06:53:13;28.88;;;12.27;;
63943;SDS011;50121;51.218;7.664;2023-03-03T06:55:41;24.23;;;11.05;;
63943;SDS011;50121;51.218;7.664;2023-03-03T06:58:11;29.60;;;12.50;;
63943;SDS011;50121;51.218;7.664;2023-03-03T07:00:41;28.42;;;13.55;;
63943;SDS011;50121;51.218;7.664;2023-03-03T07:03:17;23.38;;;11.18;;
63943;SDS011;50121;51.218;7.664;2023-03-03T07:05:44;29.65;;;12.57;;
63943;SDS011;50121;51.218;7.664;2023-03-03T07:08:16;36.10;;;12.98;;
63943;SDS011;50121;51.218;7.664;2023-03-03T07:10:45;37.03;;;14.77;;
63943;SDS011;50121;51.218;7.664;2023-03-03T07:13:23;30.65;;;13.13;;
63943;SDS011;50121;51.218;7.664;2023-03-03T07:15:51;37.10;;;14.13;;
63943;SDS011;50121;51.218;7.664;2023-03-03T07:21:21;25.40;;;11.43;;
63943;SDS011;50121;51.218;7.664;2023-03-03T07:23:51;26.05;;;11.80;;
63943;SDS011;50121;51.218;7.664;2023-03-03T07:26:19;31.77;;;13.27;;
63943;SDS011;50121;51.218;7.664;2023-03-03T07:28:52;37.85;;;15.00;;
63943;SDS011;50121;51.218;7.664;2023-03-03T07:33:52;43.08;;;12.27;;
63943;SDS011;50121;51.218;7.664;2023-03-03T07:36:23;26.63;;;12.20;;
63943;SDS011;50121;51.218;7.664;2023-03-03T07:38:53;38.35;;;15.73;;
63943;SDS011;50121;51.218;7.664;2023-03-03T07:41:21;34.92;;;14.48;;
63943;SDS011;50121;51.218;7.664;2023-03-03T07:43:52;34.80;;;12.35;;
63943;SDS011;50121;51.218;7.664;2023-03-03T07:49:08;32.00;;;12.95;;
63943;SDS011;50121;51.218;7.664;2023-03-03T07:51:40;29.23;;;13.50;;
63943;SDS011;50121;51.218;7.664;2023-03-03T07:56:38;105.75;;;30.08;;
63943;SDS011;50121;51.218;7.664;2023-03-03T07:59:11;43.95;;;16.10;;
63943;SDS011;50121;51.218;7.664;2023-03-03T08:01:43;87.15;;;26.92;;
63943;SDS011;50121;51.218;7.664;2023-03-03T08:06:41;34.20;;;12.60;;
63943;SDS011;50121;51.218;7.664;2023-03-03T08:14:20;26.98;;;10.05;;
63943;SDS011;50121;51.218;7.664;2023-03-03T08:16:51;39.22;;;14.70;;
63943;SDS011;50121;51.218;7.664;2023-03-03T08:19:18;24.15;;;11.00;;
63943;SDS011;50121;51.218;7.664;2023-03-03T08:21:46;17.90;;;8.43;;
63943;SDS011;50121;51.218;7.664;2023-03-03T08:24:13;25.73;;;11.80;;
63943;SDS011;50121;51.218;7.664;2023-03-03T08:26:41;23.52;;;10.55;;
63943;SDS011;50121;51.218;7.664;2023-03-03T08:29:09;33.83;;;15.23;;
63943;SDS011;50121;51.218;7.664;2023-03-03T08:31:37;30.88;;;12.68;;
63943;SDS011;50121;51.218;7.664;2023-03-03T08:34:07;49.80;;;17.35;;
63943;SDS011;50121;51.218;7.664;2023-03-03T08:36:35;61.58;;;24.90;;
63943;SDS011;50121;51.218;7.664;2023-03-03T08:39:03;49.40;;;20.50;;
63943;SDS011;50121;51.218;7.664;2023-03-03T08:41:30;65.07;;;25.95;;
63943;SDS011;50121;51.218;7.664;2023-03-03T08:43:58;41.10;;;18.05;;
63943;SDS011;50121;51.218;7.664;2023-03-03T08:46:25;34.88;;;15.27;;
63943;SDS011;50121;51.218;7.664;2023-03-03T08:48:54;31.63;;;14.60;;
63943;SDS011;50121;51.218;7.664;2023-03-03T08:51:23;45.90;;;20.85;;
63943;SDS011;50121;51.218;7.664;2023-03-03T08:53:52;32.40;;;16.73;;
63943;SDS011;50121;51.218;7.664;2023-03-03T08:56:19;27.02;;;13.00;;
63943;SDS011;50121;51.218;7.664;2023-03-03T08:58:46;24.42;;;13.07;;
63943;SDS011;50121;51.218;7.664;2023-03-03T09:01:27;19.80;;;10.43;;
63943;SDS011;50121;51.218;7.664;2023-03-03T09:03:54;23.40;;;11.27;;
63943;SDS011;50121;51.218;7.664;2023-03-03T09:06:22;21.33;;;12.23;;
63943;SDS011;50121;51.218;7.664;2023-03-03T09:08:50;21.30;;;11.60;;
63943;SDS011;50121;51.218;7.664;2023-03-03T09:11:22;23.55;;;12.45;;
63943;SDS011;50121;51.218;7.664;2023-03-03T09:13:52;18.83;;;9.07;;
63943;SDS011;50121;51.218;7.664;2023-03-03T09:16:20;18.58;;;10.35;;
63943;SDS011;50121;51.218;7.664;2023-03-03T09:18:48;23.50;;;12.48;;
63943;SDS011;50121;51.218;7.664;2023-03-03T09:23:47;20.50;;;10.88;;
63943;SDS011;50121;51.218;7.664;2023-03-03T09:28:54;19.92;;;10.27;;
63943;SDS011;50121;51.218;7.664;2023-03-03T09:33:50;19.92;;;10.35;;
63943;SDS011;50121;51.218;7.664;2023-03-03T09:38:51;22.35;;;10.77;;
63943;SDS011;50121;51.218;7.664;2023-03-03T09:46:46;17.73;;;9.98;;
63943;SDS011;50121;51.218;7.664;2023-03-03T09:49:22;23.90;;;10.48;;
63943;SDS011;50121;51.218;7.664;2023-03-03T10:07:35;21.05;;;9.60;;
63943;SDS011;50121;51.218;7.664;2023-03-03T10:20:53;16.27;;;9.05;;
63943;SDS011;50121;51.218;7.664;2023-03-03T10:25:52;16.90;;;9.05;;
63943;SDS011;50121;51.218;7.664;2023-03-03T10:38:45;17.08;;;9.18;;
63943;SDS011;50121;51.218;7.664;2023-03-03T11:07:55;14.88;;;9.02;;
63943;SDS011;50121;51.218;7.664;2023-03-03T11:12:33;17.55;;;10.00;;
63943;SDS011;50121;51.218;7.664;2023-03-03T11:22:48;18.27;;;9.63;;
63943;SDS011;50121;51.218;7.664;2023-03-03T11:25:26;16.50;;;9.15;;
63943;SDS011;50121;51.218;7.664;2023-03-03T11:28:02;19.90;;;10.18;;
63943;SDS011;50121;51.218;7.664;2023-03-03T11:33:34;16.15;;;9.60;;
63943;SDS011;50121;51.218;7.664;2023-03-03T11:38:56;18.77;;;10.18;;
63943;SDS011;50121;51.218;7.664;2023-03-03T11:41:32;19.15;;;10.00;;
63943;SDS011;50121;51.218;7.664;2023-03-03T11:44:23;19.95;;;10.73;;
63943;SDS011;50121;51.218;7.664;2023-03-03T11:46:50;15.85;;;9.25;;
63943;SDS011;50121;51.218;7.664;2023-03-03T11:49:21;17.27;;;9.85;;
63943;SDS011;50121;51.218;7.664;2023-03-03T11:52:02;19.63;;;10.88;;
63943;SDS011;50121;51.218;7.664;2023-03-03T11:54:35;22.10;;;11.48;;
63943;SDS011;50121;51.218;7.664;2023-03-03T11:57:16;19.65;;;11.10;;
63943;SDS011;50121;51.218;7.664;2023-03-03T11:59:56;20.05;;;11.43;;
63943;SDS011;50121;51.218;7.664;2023-03-03T12:12:48;19.85;;;11.02;;
63943;SDS011;50121;51.218;7.664;2023-03-03T12:23:17;18.33;;;10.98;;
63943;SDS011;50121;51.218;7.664;2023-03-03T12:26:01;21.20;;;11.48;;
63943;SDS011;50121;51.218;7.664;2023-03-03T12:28:37;21.52;;;11.15;;
63943;SDS011;50121;51.218;7.664;2023-03-03T12:34:11;21.25;;;11.68;;
63943;SDS011;50121;51.218;7.664;2023-03-03T12:39:46;20.90;;;11.63;;
63943;SDS011;50121;51.218;7.664;2023-03-03T12:42:20;20.13;;;11.40;;
63943;SDS011;50121;51.218;7.664;2023-03-03T12:47:28;20.10;;;10.40;;
63943;SDS011;50121;51.218;7.664;2023-03-03T13:03:03;17.08;;;10.55;;
63943;SDS011;50121;51.218;7.664;2023-03-03T13:08:25;13.65;;;8.45;;
63943;SDS011;50121;51.218;7.664;2023-03-03T13:11:04;13.75;;;8.63;;
63943;SDS011;50121;51.218;7.664;2023-03-03T13:16:11;17.80;;;10.25;;
63943;SDS011;50121;51.218;7.664;2023-03-03T13:21:27;19.42;;;10.77;;
63943;SDS011;50121;51.218;7.664;2023-03-03T13:24:01;16.90;;;10.65;;
63943;SDS011;50121;51.218;7.664;2023-03-03T13:26:38;16.48;;;9.63;;
63943;SDS011;50121;51.218;7.664;2023-03-03T13:39:24;18.45;;;9.93;;
63943;SDS011;50121;51.218;7.664;2023-03-03T13:44:33;17.00;;;10.60;;
63943;SDS011;50121;51.218;7.664;2023-03-03T13:49:50;15.75;;;9.73;;
63943;SDS011;50121;51.218;7.664;2023-03-03T13:52:21;18.08;;;10.05;;
63943;SDS011;50121;51.218;7.664;2023-03-03T13:54:51;18.83;;;10.52;;
63943;SDS011;50121;51.218;7.664;2023-03-03T14:10:33;20.88;;;10.82;;
63943;SDS011;50121;51.218;7.664;2023-03-03T14:13:06;16.90;;;9.68;;
63943;SDS011;50121;51.218;7.664;2023-03-03T14:15:49;19.05;;;10.88;;
63943;SDS011;50121;51.218;7.664;2023-03-03T14:20:49;17.35;;;10.32;;
63943;SDS011;50121;51.218;7.664;2023-03-03T14:24:19;18.70;;;11.18;;
63943;SDS011;50121;51.218;7.664;2023-03-03T14:26:14;19.10;;;10.93;;
63943;SDS011;50121;51.218;7.664;2023-03-03T14:28:46;18.63;;;10.75;;
63943;SDS011;50121;51.218;7.664;2023-03-03T14:33:43;23.50;;;11.93;;
63943;SDS011;50121;51.218;7.664;2023-03-03T14:36:13;23.65;;;12.52;;
63943;SDS011;50121;51.218;7.664;2023-03-03T14:38:42;21.88;;;11.75;;
63943;SDS011;50121;51.218;7.664;2023-03-03T14:43:39;22.25;;;11.70;;
63943;SDS011;50121;51.218;7.664;2023-03-03T14:48:54;21.92;;;11.38;;
63943;SDS011;50121;51.218;7.664;2023-03-03T14:51:24;19.38;;;10.70;;
63943;SDS011;50121;51.218;7.664;2023-03-03T14:53:52;22.77;;;11.35;;
63943;SDS011;50121;51.218;7.664;2023-03-03T14:56:24;21.30;;;11.95;;
63943;SDS011;50121;51.218;7.664;2023-03-03T14:58:53;51.03;;;20.30;;
63943;SDS011;50121;51.218;7.664;2023-03-03T15:01:30;40.75;;;16.98;;
63943;SDS011;50121;51.218;7.664;2023-03-03T15:04:00;30.38;;;13.95;;
63943;SDS011;50121;51.218;7.664;2023-03-03T15:09:23;57.92;;;26.30;;
63943;SDS011;50121;51.218;7.664;2023-03-03T15:11:55;22.17;;;13.23;;
63943;SDS011;50121;51.218;7.664;2023-03-03T15:22:19;22.80;;;12.48;;
63943;SDS011;50121;51.218;7.664;2023-03-03T15:25:03;31.05;;;13.52;;
63943;SDS011;50121;51.218;7.664;2023-03-03T15:27:36;19.95;;;12.02;;
63943;SDS011;50121;51.218;7.664;2023-03-03T15:30:29;20.65;;;11.95;;
63943;SDS011;50121;51.218;7.664;2023-03-03T15:32:59;20.58;;;11.85;;
63943;SDS011;50121;51.218;7.664;2023-03-03T15:40:58;20.90;;;12.55;;
63943;SDS011;50121;51.218;7.664;2023-03-03T15:43:27;20.85;;;12.93;;
63943;SDS011;50121;51.218;7.664;2023-03-03T15:57:13;19.77;;;12.20;;
63943;SDS011;50121;51.218;7.664;2023-03-03T16:02:48;18.17;;;12.18;;
63943;SDS011;50121;51.218;7.664;2023-03-03T16:07:57;21.13;;;11.65;;
63943;SDS011;50121;51.218;7.664;2023-03-03T16:12:55;17.85;;;12.27;;
63943;SDS011;50121;51.218;7.664;2023-03-03T16:15:43;22.60;;;13.43;;
63943;SDS011;50121;51.218;7.664;2023-03-03T16:23:30;19.40;;;12.82;;
63943;SDS011;50121;51.218;7.664;2023-03-03T16:28:37;20.75;;;12.82;;
63943;SDS011;50121;51.218;7.664;2023-03-03T16:41:59;20.50;;;12.20;;
63943;SDS011;50121;51.218;7.664;2023-03-03T16:47:20;35.60;;;18.15;;
63943;SDS011;50121;51.218;7.664;2023-03-03T16:52:36;24.40;;;14.32;;
63943;SDS011;50121;51.218;7.664;2023-03-03T16:55:17;24.75;;;11.82;;
63943;SDS011;50121;51.218;7.664;2023-03-03T17:00:20;27.80;;;12.90;;
63943;SDS011;50121;51.218;7.664;2023-03-03T17:05:41;27.10;;;13.48;;
63943;SDS011;50121;51.218;7.664;2023-03-03T17:10:50;29.10;;;14.07;;
63943;SDS011;50121;51.218;7.664;2023-03-03T17:16:01;27.38;;;12.55;;
63943;SDS011;50121;51.218;7.664;2023-03-03T17:18:39;28.63;;;12.85;;
63943;SDS011;50121;51.218;7.664;2023-03-03T17:21:19;33.03;;;13.35;;
63943;SDS011;50121;51.218;7.664;2023-03-03T17:23:52;27.08;;;13.25;;
63943;SDS011;50121;51.218;7.664;2023-03-03T17:43:02;28.30;;;13.10;;
63943;SDS011;50121;51.218;7.664;2023-03-03T17:52:30;31.63;;;13.38;;
63943;SDS011;50121;51.218;7.664;2023-03-03T18:08:32;28.88;;;12.18;;
63943;SDS011;50121;51.218;7.664;2023-03-03T18:11:13;32.10;;;12.00;;
63943;SDS011;50121;51.218;7.664;2023-03-03T18:18:59;32.05;;;12.77;;
63943;SDS011;50121;51.218;7.664;2023-03-03T18:27:11;31.30;;;13.45;;
63943;SDS011;50121;51.218;7.664;2023-03-03T18:29:42;31.73;;;15.40;;
63943;SDS011;50121;51.218;7.664;2023-03-03T18:32:39;36.10;;;14.80;;
63943;SDS011;50121;51.218;7.664;2023-03-03T18:37:54;35.28;;;15.18;;
63943;SDS011;50121;51.218;7.664;2023-03-03T18:40:27;32.58;;;16.30;;
63943;SDS011;50121;51.218;7.664;2023-03-03T18:42:55;33.22;;;15.07;;
63943;SDS011;50121;51.218;7.664;2023-03-03T18:53:04;40.90;;;16.23;;
63943;SDS011;50121;51.218;7.664;2023-03-03T18:55:41;34.45;;;14.82;;
63943;SDS011;50121;51.218;7.664;2023-03-03T19:00:46;40.38;;;15.05;;
63943;SDS011;50121;51.218;7.664;2023-03-03T19:03:25;101.55;;;50.28;;
63943;SDS011;50121;51.218;7.664;2023-03-03T19:05:53;41.55;;;18.98;;
63943;SDS011;50121;51.218;7.664;2023-03-03T19:08:24;36.22;;;14.80;;
63943;SDS011;50121;51.218;7.664;2023-03-03T19:10:59;37.42;;;14.20;;
63943;SDS011;50121;51.218;7.664;2023-03-03T19:16:01;32.38;;;13.55;;
63943;SDS011;50121;51.218;7.664;2023-03-03T19:18:30;33.28;;;14.05;;
63943;SDS011;50121;51.218;7.664;2023-03-03T19:31:29;29.58;;;12.90;;
63943;SDS011;50121;51.218;7.664;2023-03-03T19:34:05;32.15;;;13.63;;
63943;SDS011;50121;51.218;7.664;2023-03-03T19:47:02;35.55;;;13.40;;
63943;SDS011;50121;51.218;7.664;2023-03-03T19:57:36;36.15;;;14.05;;
63943;SDS011;50121;51.218;7.664;2023-03-03T20:02:46;34.90;;;15.13;;
63943;SDS011;50121;51.218;7.664;2023-03-03T20:08:00;37.45;;;14.68;;
63943;SDS011;50121;51.218;7.664;2023-03-03T20:10:37;37.67;;;14.23;;
63943;SDS011;50121;51.218;7.664;2023-03-03T20:21:00;39.83;;;14.95;;
63943;SDS011;50121;51.218;7.664;2023-03-03T20:23:47;34.13;;;14.20;;
63943;SDS011;50121;51.218;7.664;2023-03-03T20:37:10;35.53;;;14.95;;
63943;SDS011;50121;51.218;7.664;2023-03-03T20:45:12;31.85;;;14.95;;
63943;SDS011;50121;51.218;7.664;2023-03-03T20:52:56;34.22;;;16.25;;
63943;SDS011;50121;51.218;7.664;2023-03-03T20:57:58;36.40;;;15.70;;
63943;SDS011;50121;51.218;7.664;2023-03-03T21:00:37;38.85;;;16.25;;
63943;SDS011;50121;51.218;7.664;2023-03-03T21:06:02;31.42;;;15.48;;
63943;SDS011;50121;51.218;7.664;2023-03-03T21:11:08;28.00;;;14.30;;
63943;SDS011;50121;51.218;7.664;2023-03-03T21:13:40;27.80;;;13.80;;
63943;SDS011;50121;51.218;7.664;2023-03-03T21:19:05;30.08;;;14.35;;
63943;SDS011;50121;51.218;7.664;2023-03-03T21:21:42;28.63;;;14.88;;
63943;SDS011;50121;51.218;7.664;2023-03-03T21:24:12;28.20;;;12.10;;
63943;SDS011;50121;51.218;7.664;2023-03-03T21:31:48;26.08;;;14.05;;
63943;SDS011;50121;51.218;7.664;2023-03-03T21:34:17;29.30;;;14.80;;
63943;SDS011;50121;51.218;7.664;2023-03-03T21:36:45;27.20;;;13.82;;
63943;SDS011;50121;51.218;7.664;2023-03-03T21:44:27;21.10;;;11.88;;
63943;SDS011;50121;51.218;7.664;2023-03-03T21:46:56;22.60;;;12.27;;
63943;SDS011;50121;51.218;7.664;2023-03-03T21:49:24;22.33;;;12.48;;
63943;SDS011;50121;51.218;7.664;2023-03-03T21:51:53;26.25;;;12.95;;
63943;SDS011;50121;51.218;7.664;2023-03-03T21:54:21;29.80;;;13.23;;
63943;SDS011;50121;51.218;7.664;2023-03-03T21:56:49;21.90;;;12.20;;
63943;SDS011;50121;51.218;7.664;2023-03-03T21:59:17;23.58;;;12.50;;
63943;SDS011;50121;51.218;7.664;2023-03-03T22:01:44;25.08;;;13.13;;
63943;SDS011;50121;51.218;7.664;2023-03-03T22:04:12;22.98;;;13.18;;
63943;SDS011;50121;51.218;7.664;2023-03-03T22:06:40;22.70;;;12.77;;
63943;SDS011;50121;51.218;7.664;2023-03-03T22:09:08;21.65;;;11.45;;